createdAt,value
2023-02-27T00:02:01.729Z,-0.24
2023-02-27T00:04:28.621Z,-0.29
2023-02-27T00:06:55.548Z,-0.29
2023-02-27T00:09:22.373Z,-0.31
2023-02-27T00:11:49.186Z,-0.40
2023-02-27T00:14:15.978Z,-0.39
2023-02-27T00:16:42.804Z,-0.41
2023-02-27T00:19:09.640Z,-0.45
2023-02-27T00:21:36.992Z,-0.43
2023-02-27T00:24:04.347Z,-0.44
2023-02-27T00:26:31.313Z,-0.46
2023-02-27T00:28:58.084Z,-0.47
2023-02-27T00:31:25.495Z,-0.48
2023-02-27T00:33:52.489Z,-0.46
2023-02-27T00:36:19.439Z,-0.46
2023-02-27T00:38:46.340Z,-0.44
2023-02-27T00:41:13.144Z,-0.46
2023-02-27T00:43:40.235Z,-0.48
2023-02-27T00:46:07.066Z,-0.53
2023-02-27T00:48:33.953Z,-0.53
2023-02-27T00:51:01.667Z,-0.55
2023-02-27T00:53:28.817Z,-0.57
2023-02-27T00:55:55.643Z,-0.57
2023-02-27T00:58:22.415Z,-0.56
2023-02-27T01:00:49.437Z,-0.55
2023-02-27T01:03:16.235Z,-0.55
2023-02-27T01:05:43.088Z,-0.53
2023-02-27T01:08:09.892Z,-0.55
2023-02-27T01:10:36.919Z,-0.52
2023-02-27T01:13:06.527Z,-0.55
2023-02-27T01:15:34.041Z,-0.55
2023-02-27T01:18:00.922Z,-0.51
2023-02-27T01:20:28.617Z,-0.50
2023-02-27T01:22:55.432Z,-0.47
2023-02-27T01:25:22.355Z,-0.44
2023-02-27T01:27:50.293Z,-0.44
2023-02-27T01:30:17.353Z,-0.46
2023-02-27T01:32:44.661Z,-0.45
2023-02-27T01:35:11.787Z,-0.48
2023-02-27T01:37:39.022Z,-0.47
2023-02-27T01:40:07.341Z,-0.47
2023-02-27T01:42:34.203Z,-0.50
2023-02-27T01:45:29.975Z,-0.53
2023-02-27T01:48:08.879Z,-0.52
2023-02-27T01:50:38.448Z,-0.51
2023-02-27T01:53:06.377Z,-0.51
2023-02-27T01:55:38.035Z,-0.49
2023-02-27T01:58:08.428Z,-0.43
2023-02-27T02:00:36.148Z,-0.43
2023-02-27T02:03:33.411Z,-0.44
2023-02-27T02:06:02.580Z,-0.48
2023-02-27T02:08:30.972Z,-0.52
2023-02-27T02:10:58.646Z,-0.52
2023-02-27T02:13:25.964Z,-0.53
2023-02-27T02:16:22.047Z,-0.58
2023-02-27T02:19:29.749Z,-0.60
2023-02-27T02:22:36.370Z,-0.62
2023-02-27T02:25:41.122Z,-0.64
2023-02-27T02:28:48.007Z,-0.65
2023-02-27T02:31:48.533Z,-0.64
2023-02-27T02:34:41.675Z,-0.64
2023-02-27T02:37:48.459Z,-0.65
2023-02-27T02:40:36.562Z,-0.63
2023-02-27T02:43:19.486Z,-0.63
2023-02-27T02:45:54.898Z,-0.63
2023-02-27T02:48:31.744Z,-0.63
2023-02-27T02:51:28.320Z,-0.64
2023-02-27T02:54:20.177Z,-0.62
2023-02-27T02:56:52.640Z,-0.64
2023-02-27T02:59:33.384Z,-0.65
2023-02-27T03:02:04.067Z,-0.64
2023-02-27T03:04:56.319Z,-0.63
2023-02-27T03:07:31.845Z,-0.63
2023-02-27T03:10:20.103Z,-0.64
2023-02-27T03:12:51.771Z,-0.64
2023-02-27T03:15:23.074Z,-0.66
2023-02-27T03:17:59.540Z,-0.71
2023-02-27T03:20:31.746Z,-0.69
2023-02-27T03:23:02.209Z,-0.66
2023-02-27T03:25:29.766Z,-0.65
2023-02-27T03:28:01.135Z,-0.68
2023-02-27T03:30:37.036Z,-0.65
2023-02-27T03:33:18.917Z,-0.66
2023-02-27T03:36:27.606Z,-0.63
2023-02-27T03:39:01.235Z,-0.63
2023-02-27T03:41:32.292Z,-0.63
2023-02-27T03:44:29.910Z,-0.62
2023-02-27T03:46:56.949Z,-0.63
2023-02-27T03:49:24.094Z,-0.64
2023-02-27T03:51:51.237Z,-0.64
2023-02-27T03:54:27.382Z,-0.65
2023-02-27T03:57:08.052Z,-0.62
2023-02-27T03:59:37.169Z,-0.58
2023-02-27T04:02:04.460Z,-0.56
2023-02-27T04:04:33.277Z,-0.54
2023-02-27T04:07:38.010Z,-0.57
2023-02-27T04:10:32.894Z,-0.44
2023-02-27T04:13:26.766Z,-0.39
2023-02-27T04:16:33.512Z,-0.40
2023-02-27T04:19:25.350Z,-0.40
2023-02-27T04:22:19.136Z,-0.35
2023-02-27T04:24:59.028Z,-0.32
2023-02-27T04:27:59.296Z,-0.30
2023-02-27T04:30:32.751Z,-0.26
2023-02-27T04:33:25.762Z,-0.27
2023-02-27T04:36:06.084Z,-0.29
2023-02-27T04:38:40.795Z,-0.27
2023-02-27T04:41:12.518Z,-0.24
2023-02-27T04:43:41.275Z,-0.27
2023-02-27T04:46:11.158Z,-0.22
2023-02-27T04:48:44.177Z,-0.24
2023-02-27T04:51:14.760Z,-0.21
2023-02-27T04:54:04.167Z,-0.25
2023-02-27T04:56:34.480Z,-0.25
2023-02-27T04:59:15.185Z,-0.27
2023-02-27T05:01:45.737Z,-0.30
2023-02-27T05:04:15.244Z,-0.31
2023-02-27T05:06:43.852Z,-0.32
2023-02-27T05:09:50.638Z,-0.29
2023-02-27T05:12:26.102Z,-0.30
2023-02-27T05:15:00.457Z,-0.28
2023-02-27T05:17:33.497Z,-0.27
2023-02-27T05:20:00.742Z,-0.23
2023-02-27T05:22:46.482Z,-0.23
2023-02-27T05:25:27.306Z,-0.23
2023-02-27T05:28:15.618Z,-0.19
2023-02-27T05:30:51.280Z,-0.20
2023-02-27T05:33:27.928Z,-0.18
2023-02-27T05:36:16.262Z,-0.19
2023-02-27T05:38:49.930Z,-0.17
2023-02-27T05:41:20.881Z,-0.16
2023-02-27T05:43:54.593Z,-0.15
2023-02-27T05:46:37.617Z,-0.14
2023-02-27T05:49:12.079Z,-0.15
2023-02-27T05:51:40.192Z,-0.17
2023-02-27T05:54:11.135Z,-0.27
2023-02-27T05:56:39.014Z,-0.32
2023-02-27T05:59:28.881Z,-0.32
2023-02-27T06:01:55.932Z,-0.30
2023-02-27T06:04:23.001Z,-0.21
2023-02-27T06:06:49.917Z,-0.15
2023-02-27T06:09:16.810Z,-0.10
2023-02-27T06:11:43.704Z,-0.10
2023-02-27T06:16:39.256Z,-0.10
2023-02-27T06:19:06.492Z,-0.09
2023-02-27T06:21:33.406Z,-0.08
2023-02-27T06:24:00.332Z,-0.07
2023-02-27T06:26:27.610Z,-0.09
2023-02-27T06:28:54.758Z,-0.09
2023-02-27T06:31:21.841Z,-0.11
2023-02-27T06:33:48.816Z,-0.07
2023-02-27T06:36:15.876Z,-0.06
2023-02-27T06:38:42.731Z,-0.03
2023-02-27T06:41:09.638Z,0.02
2023-02-27T06:43:37.278Z,0.05
2023-02-27T06:46:04.244Z,0.05
2023-02-27T06:48:31.326Z,0.08
2023-02-27T06:50:58.331Z,0.09
2023-02-27T06:53:25.915Z,0.11
2023-02-27T06:55:52.890Z,0.14
2023-02-27T06:58:20.195Z,0.16
2023-02-27T07:00:47.777Z,0.15
2023-02-27T07:03:14.946Z,0.16
2023-02-27T07:05:42.264Z,0.18
2023-02-27T07:08:10.448Z,0.24
2023-02-27T07:10:37.546Z,0.33
2023-02-27T07:13:04.666Z,0.44
2023-02-27T07:15:31.753Z,0.53
2023-02-27T07:17:58.766Z,0.62
2023-02-27T07:20:25.772Z,0.68
2023-02-27T07:22:52.818Z,0.69
2023-02-27T07:25:19.733Z,0.54
2023-02-27T07:27:49.735Z,0.60
2023-02-27T07:30:18.447Z,0.78
2023-02-27T07:32:45.868Z,0.90
2023-02-27T07:35:12.874Z,0.92
2023-02-27T07:37:39.901Z,0.97
2023-02-27T07:40:07.742Z,1.02
2023-02-27T07:42:35.519Z,1.13
2023-02-27T07:45:02.669Z,1.28
2023-02-27T07:47:30.494Z,1.50
2023-02-27T07:49:57.612Z,1.71
2023-02-27T07:52:24.857Z,1.84
2023-02-27T07:54:51.925Z,1.98
2023-02-27T07:57:18.918Z,2.05
2023-02-27T07:59:45.958Z,2.02
2023-02-27T08:02:13.132Z,1.99
2023-02-27T08:04:40.262Z,1.99
2023-02-27T08:07:07.252Z,1.93
2023-02-27T08:09:34.273Z,1.87
2023-02-27T08:12:03.093Z,1.83
2023-02-27T08:14:30.181Z,1.85
2023-02-27T08:16:57.262Z,1.92
2023-02-27T08:19:24.126Z,1.98
2023-02-27T08:21:51.140Z,2.02
2023-02-27T08:24:18.572Z,2.11
2023-02-27T08:26:45.445Z,2.15
2023-02-27T08:29:12.365Z,2.25
2023-02-27T08:31:39.268Z,2.14
2023-02-27T08:34:10.844Z,2.10
2023-02-27T08:36:38.120Z,2.20
2023-02-27T08:39:06.030Z,2.23
2023-02-27T08:41:33.188Z,2.25
2023-02-27T08:44:00.127Z,2.33
2023-02-27T08:46:27.651Z,2.45
2023-02-27T08:48:54.898Z,2.47
2023-02-27T08:51:22.234Z,2.49
2023-02-27T08:53:49.237Z,2.48
2023-02-27T08:56:16.361Z,2.52
2023-02-27T08:58:43.315Z,2.50
2023-02-27T09:01:10.311Z,2.51
2023-02-27T09:03:37.566Z,2.56
2023-02-27T09:06:05.361Z,2.69
2023-02-27T09:08:32.420Z,2.81
2023-02-27T09:11:00.280Z,2.87
2023-02-27T09:13:27.349Z,2.85
2023-02-27T09:15:54.881Z,2.85
2023-02-27T09:18:22.773Z,2.87
2023-02-27T09:20:53.787Z,2.93
2023-02-27T09:23:20.919Z,3.02
2023-02-27T09:25:48.012Z,3.23
2023-02-27T09:28:15.560Z,3.50
2023-02-27T09:30:42.815Z,3.69
2023-02-27T09:33:09.848Z,4.00
2023-02-27T09:35:37.349Z,4.08
2023-02-27T09:38:04.456Z,3.93
2023-02-27T09:40:36.888Z,3.94
2023-02-27T09:43:15.941Z,3.75
2023-02-27T09:45:43.304Z,3.19
2023-02-27T09:48:42.965Z,3.39
2023-02-27T09:51:10.314Z,3.08
2023-02-27T09:53:39.926Z,3.22
2023-02-27T09:56:22.870Z,3.14
2023-02-27T09:59:22.971Z,3.29
2023-02-27T10:01:59.520Z,3.31
2023-02-27T10:05:05.752Z,3.16
2023-02-27T10:07:42.488Z,3.30
2023-02-27T10:10:31.840Z,3.49
2023-02-27T10:13:38.570Z,3.59
2023-02-27T10:16:06.337Z,3.23
2023-02-27T10:18:51.624Z,3.40
2023-02-27T10:21:26.319Z,3.13
2023-02-27T10:24:33.676Z,2.88
2023-02-27T10:27:03.032Z,2.97
2023-02-27T10:29:40.031Z,3.16
2023-02-27T10:32:14.037Z,3.10
2023-02-27T10:34:42.593Z,3.18
2023-02-27T10:37:15.441Z,3.27
2023-02-27T10:39:54.113Z,2.94
2023-02-27T10:42:22.435Z,3.12
2023-02-27T10:44:53.694Z,3.15
2023-02-27T10:47:23.737Z,3.07
2023-02-27T10:49:52.610Z,3.23
2023-02-27T10:52:19.758Z,3.38
2023-02-27T10:54:47.360Z,3.42
2023-02-27T10:57:37.587Z,3.24
2023-02-27T11:00:12.249Z,3.24
2023-02-27T11:02:41.113Z,3.53
2023-02-27T11:05:28.999Z,3.62
2023-02-27T11:07:57.526Z,3.71
2023-02-27T11:10:27.230Z,3.56
2023-02-27T11:13:03.749Z,3.55
2023-02-27T11:15:33.508Z,3.55
2023-02-27T11:18:22.029Z,2.90
2023-02-27T11:20:50.966Z,3.09
2023-02-27T11:23:23.720Z,2.81
2023-02-27T11:25:51.535Z,2.93
2023-02-27T11:28:25.835Z,3.16
2023-02-27T11:31:03.615Z,3.14
2023-02-27T11:33:35.495Z,3.57
2023-02-27T11:36:02.501Z,3.90
2023-02-27T11:38:30.411Z,3.84
2023-02-27T11:41:00.353Z,3.87
2023-02-27T11:43:34.573Z,3.65
2023-02-27T11:46:30.089Z,3.78
2023-02-27T11:48:56.466Z,3.53
2023-02-27T11:51:54.691Z,3.51
2023-02-27T11:54:38.945Z,3.40
2023-02-27T11:57:24.904Z,3.52
2023-02-27T11:59:56.243Z,3.45
2023-02-27T12:02:48.219Z,3.23
2023-02-27T12:05:21.279Z,2.97
2023-02-27T12:07:54.852Z,2.94
2023-02-27T12:10:24.776Z,3.00
2023-02-27T12:13:13.033Z,3.12
2023-02-27T12:15:56.753Z,3.17
2023-02-27T12:18:28.756Z,3.18
2023-02-27T12:21:00.819Z,3.09
2023-02-27T12:23:46.690Z,3.13
2023-02-27T12:26:22.193Z,3.14
2023-02-27T12:29:18.433Z,3.15
2023-02-27T12:31:50.814Z,3.17
2023-02-27T12:34:29.321Z,3.13
2023-02-27T12:37:11.405Z,3.14
2023-02-27T12:39:38.527Z,3.25
2023-02-27T12:42:29.129Z,3.23
2023-02-27T12:45:24.252Z,3.22
2023-02-27T12:48:14.008Z,3.17
2023-02-27T12:51:09.643Z,3.17
2023-02-27T12:54:12.230Z,3.16
2023-02-27T12:56:59.345Z,3.08
2023-02-27T12:59:59.265Z,3.00
2023-02-27T13:02:48.959Z,3.06
2023-02-27T13:05:47.109Z,3.06
2023-02-27T13:08:25.078Z,3.09
2023-02-27T13:11:18.811Z,3.25
2023-02-27T13:13:52.632Z,3.40
2023-02-27T13:16:30.271Z,3.27
2023-02-27T13:19:06.181Z,2.99
2023-02-27T13:21:39.861Z,2.72
2023-02-27T13:24:27.520Z,2.50
2023-02-27T13:27:01.162Z,2.32
2023-02-27T13:29:35.799Z,2.21
2023-02-27T13:32:42.784Z,2.22
2023-02-27T13:35:37.894Z,2.28
2023-02-27T13:38:44.980Z,2.34
2023-02-27T13:41:37.094Z,2.43
2023-02-27T13:44:24.302Z,2.60
2023-02-27T13:46:51.592Z,2.73
2023-02-27T13:49:29.325Z,2.67
2023-02-27T13:51:59.856Z,2.77
2023-02-27T13:54:32.856Z,2.73
2023-02-27T13:57:21.633Z,2.79
2023-02-27T13:59:58.144Z,2.91
2023-02-27T14:02:56.546Z,3.04
2023-02-27T14:05:37.612Z,3.01
2023-02-27T14:08:25.066Z,3.04
2023-02-27T14:11:09.343Z,2.88
2023-02-27T14:13:57.980Z,2.74
2023-02-27T14:16:52.542Z,2.59
2023-02-27T14:19:37.759Z,2.36
2023-02-27T14:22:29.719Z,2.00
2023-02-27T14:25:02.872Z,1.86
2023-02-27T14:27:38.572Z,1.92
2023-02-27T14:30:11.718Z,1.89
2023-02-27T14:32:39.036Z,1.88
2023-02-27T14:35:06.635Z,1.83
2023-02-27T14:37:35.904Z,1.75
2023-02-27T14:40:06.330Z,1.71
2023-02-27T14:42:49.308Z,1.65
2023-02-27T14:45:25.108Z,1.57
2023-02-27T14:47:52.880Z,1.53
2023-02-27T14:50:24.595Z,1.40
2023-02-27T14:52:51.541Z,1.39
2023-02-27T14:55:29.849Z,1.38
2023-02-27T14:58:09.218Z,1.29
2023-02-27T15:00:39.370Z,1.29
2023-02-27T15:03:28.310Z,1.32
2023-02-27T15:06:01.098Z,1.33
2023-02-27T15:08:32.181Z,1.31
2023-02-27T15:11:00.461Z,1.32
2023-02-27T15:13:35.509Z,1.29
2023-02-27T15:16:30.981Z,1.25
2023-02-27T15:19:20.162Z,1.21
2023-02-27T15:21:50.226Z,1.13
2023-02-27T15:24:26.675Z,1.10
2023-02-27T15:27:02.965Z,0.96
2023-02-27T15:29:38.896Z,0.94
2023-02-27T15:32:07.089Z,0.94
2023-02-27T15:34:35.459Z,0.92
2023-02-27T15:37:03.204Z,0.88
2023-02-27T15:39:31.123Z,0.82
2023-02-27T15:42:05.482Z,0.69
2023-02-27T15:44:39.919Z,0.73
2023-02-27T15:47:07.456Z,0.67
2023-02-27T15:49:34.632Z,0.53
2023-02-27T15:52:10.549Z,0.36
2023-02-27T15:54:47.029Z,0.28
2023-02-27T15:57:14.378Z,0.29
2023-02-27T15:59:42.700Z,0.23
2023-02-27T16:02:26.877Z,0.25
2023-02-27T16:04:53.987Z,0.20
2023-02-27T16:07:24.928Z,0.10
2023-02-27T16:09:56.953Z,0.02
2023-02-27T16:12:37.073Z,-0.02
2023-02-27T16:15:31.903Z,-0.09
2023-02-27T16:18:24.238Z,-0.21
2023-02-27T16:20:55.110Z,-0.32
2023-02-27T16:23:28.634Z,-0.51
2023-02-27T16:26:21.768Z,-0.68
2023-02-27T16:29:15.757Z,-0.70
2023-02-27T16:31:49.389Z,-0.68
2023-02-27T16:34:46.424Z,-0.66
2023-02-27T16:37:21.153Z,-0.67
2023-02-27T16:39:50.448Z,-0.68
2023-02-27T16:42:17.341Z,-0.70
2023-02-27T16:44:44.306Z,-0.76
2023-02-27T16:47:11.445Z,-0.77
2023-02-27T16:49:40.500Z,-0.85
2023-02-27T16:52:11.100Z,-1.01
2023-02-27T16:54:38.478Z,-1.14
2023-02-27T16:57:05.439Z,-1.25
2023-02-27T16:59:37.160Z,-1.35
2023-02-27T17:02:05.864Z,-1.34
2023-02-27T17:04:33.352Z,-1.34
2023-02-27T17:07:01.689Z,-1.41
2023-02-27T17:09:29.448Z,-1.50
2023-02-27T17:11:57.343Z,-1.65
2023-02-27T17:14:25.126Z,-1.76
2023-02-27T17:16:52.139Z,-1.92
2023-02-27T17:19:23.471Z,-2.00
2023-02-27T17:21:53.625Z,-2.09
2023-02-27T17:24:23.076Z,-2.20
2023-02-27T17:26:52.591Z,-2.29
2023-02-27T17:29:24.862Z,-2.38
2023-02-27T17:31:52.154Z,-2.43
2023-02-27T17:34:18.972Z,-2.49
2023-02-27T17:36:45.884Z,-2.53
2023-02-27T17:39:14.882Z,-2.56
2023-02-27T17:41:43.182Z,-2.59
2023-02-27T17:44:12.050Z,-2.61
2023-02-27T17:46:39.893Z,-2.60
2023-02-27T17:49:07.245Z,-2.61
2023-02-27T17:51:34.381Z,-2.63
2023-02-27T17:54:02.599Z,-2.66
2023-02-27T17:56:30.020Z,-2.63
2023-02-27T17:58:57.780Z,-2.62
2023-02-27T18:01:26.221Z,-2.60
2023-02-27T18:03:54.847Z,-2.56
2023-02-27T18:06:22.783Z,-2.54
2023-02-27T18:08:49.748Z,-2.59
2023-02-27T18:11:18.826Z,-2.63
2023-02-27T18:13:46.669Z,-2.66
2023-02-27T18:16:13.923Z,-2.75
2023-02-27T18:18:42.429Z,-2.82
2023-02-27T18:21:20.814Z,-2.96
2023-02-27T18:23:48.338Z,-3.00
2023-02-27T18:26:30.143Z,-3.10
2023-02-27T18:29:05.933Z,-3.15
2023-02-27T18:31:38.514Z,-3.21
2023-02-27T18:34:06.304Z,-3.31
2023-02-27T18:36:34.322Z,-3.35
2023-02-27T18:39:01.833Z,-3.42
2023-02-27T18:41:30.074Z,-3.50
2023-02-27T18:43:58.890Z,-3.51
2023-02-27T18:46:26.788Z,-3.58
2023-02-27T18:48:54.121Z,-3.61
2023-02-27T18:51:21.238Z,-3.67
2023-02-27T18:53:49.456Z,-3.70
2023-02-27T18:56:19.184Z,-3.77
2023-02-27T18:58:46.375Z,-3.78
2023-02-27T19:01:34.900Z,-3.81
2023-02-27T19:04:05.943Z,-3.82
2023-02-27T19:06:35.035Z,-3.87
2023-02-27T19:09:05.435Z,-3.88
2023-02-27T19:11:35.875Z,-3.89
2023-02-27T19:14:07.399Z,-3.97
2023-02-27T19:16:36.151Z,-4.00
2023-02-27T19:19:05.038Z,-4.09
2023-02-27T19:21:32.975Z,-4.14
2023-02-27T19:24:00.896Z,-4.21
2023-02-27T19:26:28.686Z,-4.29
2023-02-27T19:28:56.091Z,-4.32
2023-02-27T19:31:24.299Z,-4.37
2023-02-27T19:33:52.631Z,-4.43
2023-02-27T19:36:21.208Z,-4.55
2023-02-27T19:38:48.802Z,-4.63
2023-02-27T19:41:19.796Z,-4.72
2023-02-27T19:43:47.839Z,-4.74
2023-02-27T19:46:18.021Z,-4.73
2023-02-27T19:48:45.560Z,-4.78
2023-02-27T19:51:14.223Z,-4.81
2023-02-27T19:53:42.605Z,-4.85
2023-02-27T19:56:12.983Z,-4.93
2023-02-27T19:58:40.173Z,-4.99
2023-02-27T20:01:07.169Z,-5.09
2023-02-27T20:03:35.469Z,-5.15
2023-02-27T20:06:06.458Z,-5.22
2023-02-27T20:08:34.215Z,-5.29
2023-02-27T20:11:04.591Z,-5.30
2023-02-27T20:13:31.813Z,-5.24
2023-02-27T20:16:00.640Z,-5.23
2023-02-27T20:18:29.955Z,-5.19
2023-02-27T20:21:11.961Z,-5.19
2023-02-27T20:23:41.054Z,-5.20
2023-02-27T20:26:18.389Z,-5.22
2023-02-27T20:28:46.630Z,-5.26
2023-02-27T20:31:15.139Z,-5.34
2023-02-27T20:33:42.825Z,-5.43
2023-02-27T20:36:11.153Z,-5.51
2023-02-27T20:38:39.276Z,-5.56
2023-02-27T20:41:11.826Z,-5.64
2023-02-27T20:43:39.059Z,-5.65
2023-02-27T20:46:08.595Z,-5.65
2023-02-27T20:48:37.428Z,-5.65
2023-02-27T20:51:14.358Z,-5.65
2023-02-27T20:53:48.621Z,-5.66
2023-02-27T20:56:23.207Z,-5.71
2023-02-27T20:58:52.838Z,-5.76
2023-02-27T21:01:22.085Z,-5.84
2023-02-27T21:03:52.931Z,-5.89
2023-02-27T21:06:20.990Z,-5.89
2023-02-27T21:08:52.619Z,-5.91
2023-02-27T21:11:27.490Z,-5.93
2023-02-27T21:14:08.868Z,-5.95
2023-02-27T21:16:38.025Z,-5.96
2023-02-27T21:19:04.882Z,-5.97
2023-02-27T21:21:33.794Z,-6.00
2023-02-27T21:24:01.327Z,-6.06
2023-02-27T21:26:31.904Z,-6.17
2023-02-27T21:29:03.219Z,-6.23
2023-02-27T21:31:33.050Z,-6.27
2023-02-27T21:34:02.888Z,-6.31
2023-02-27T21:36:32.157Z,-6.32
2023-02-27T21:39:01.157Z,-6.32
2023-02-27T21:41:29.294Z,-6.34
2023-02-27T21:44:00.586Z,-6.39
2023-02-27T21:46:28.233Z,-6.52
2023-02-27T21:48:55.260Z,-6.72
2023-02-27T21:51:38.289Z,-6.89
2023-02-27T21:54:06.016Z,-6.97
2023-02-27T21:56:32.979Z,-7.00
2023-02-27T21:59:01.892Z,-7.08
2023-02-27T22:01:29.797Z,-7.17
2023-02-27T22:03:57.379Z,-7.23
2023-02-27T22:06:26.032Z,-7.28
2023-02-27T22:08:57.524Z,-7.31
2023-02-27T22:11:24.766Z,-7.28
2023-02-27T22:13:51.730Z,-7.27
2023-02-27T22:16:19.333Z,-7.25
2023-02-27T22:18:47.097Z,-7.22
2023-02-27T22:21:17.280Z,-7.22
2023-02-27T22:23:45.260Z,-7.21
2023-02-27T22:26:19.050Z,-7.22
2023-02-27T22:28:46.173Z,-7.21
2023-02-27T22:31:16.506Z,-7.25
2023-02-27T22:33:45.095Z,-7.29
2023-02-27T22:36:14.822Z,-7.32
2023-02-27T22:38:42.914Z,-7.29
2023-02-27T22:41:12.173Z,-7.33
2023-02-27T22:43:39.905Z,-7.34
2023-02-27T22:46:08.274Z,-7.38
2023-02-27T22:48:35.964Z,-7.45
2023-02-27T22:51:09.034Z,-7.49
2023-02-27T22:53:40.036Z,-7.52
2023-02-27T22:56:08.999Z,-7.57
2023-02-27T22:58:37.879Z,-7.58
2023-02-27T23:01:19.167Z,-7.61
2023-02-27T23:03:47.505Z,-7.61
2023-02-27T23:06:17.236Z,-7.56
2023-02-27T23:08:45.071Z,-7.52
2023-02-27T23:11:14.057Z,-7.53
2023-02-27T23:13:41.471Z,-7.50
2023-02-27T23:16:13.655Z,-7.48
2023-02-27T23:18:42.992Z,-7.45
2023-02-27T23:21:10.239Z,-7.45
2023-02-27T23:23:37.507Z,-7.45
2023-02-27T23:26:06.090Z,-7.53
2023-02-27T23:28:34.440Z,-7.62
2023-02-27T23:31:01.904Z,-7.70
2023-02-27T23:33:30.355Z,-7.71
2023-02-27T23:35:58.006Z,-7.75
2023-02-27T23:38:25.875Z,-7.81
2023-02-27T23:40:53.028Z,-7.81
2023-02-27T23:43:20.330Z,-7.80
2023-02-27T23:45:47.202Z,-7.80
2023-02-27T23:48:14.123Z,-7.74
2023-02-27T23:50:43.938Z,-7.68
2023-02-27T23:53:12.259Z,-7.65
2023-02-27T23:55:39.314Z,-7.71
2023-02-27T23:58:08.342Z,-7.76
